Weather at Doongmabulla Airport

Public forecast

Using degrees Celsius for public forecast. Weather courtesy of forecast.io.

Closest aviation weather report (METAR) to Doongmabulla Airport

Report is more than 6 hours old.

Closest report is Hughenden Airport, 135.5 nm (251.0 km) WNW. Retrieved 2022/07/31 00:10 UTC (13 days ago):

YHUG 310010Z AUTO 03017G27KT 9999 // NCD 23/13 Q1018

Closest aviation forecast (TAF) to Doongmabulla Airport

Forecast is more than 12 hours old.

Closest forecast is Hamilton Island Airport, 183.0 nm (338.9 km) ENE. Retrieved 2022/08/12 06:00 UTC (12 hours ago):

TAF YBHM 120440Z 1206/1218 12012KT 9999 SCT020 FM121000 16008KT 9999 SCT015 BKN025